createdAt,value
2018-09-29T00:01:46.119Z,72.89
2018-09-29T00:04:15.359Z,73.59
2018-09-29T00:06:44.317Z,73.77
2018-09-29T00:09:14.900Z,73.35
2018-09-29T00:11:44.270Z,73.39
2018-09-29T00:14:13.397Z,73.26
2018-09-29T00:16:42.304Z,73.78
2018-09-29T00:19:11.312Z,73.87
2018-09-29T00:21:40.365Z,74.01
2018-09-29T00:24:09.429Z,74.12
2018-09-29T00:26:38.386Z,73.96
2018-09-29T00:29:07.376Z,73.34
2018-09-29T00:31:36.316Z,73.36
2018-09-29T00:34:05.512Z,73.69
2018-09-29T00:36:34.489Z,73.51
2018-09-29T00:39:04.377Z,73.17
2018-09-29T00:41:33.363Z,73.79
2018-09-29T00:44:02.393Z,73.61
2018-09-29T00:46:31.299Z,73.70
2018-09-29T00:49:00.408Z,73.29
2018-09-29T00:51:29.342Z,74.60
2018-09-29T00:53:58.823Z,73.83
2018-09-29T00:56:27.776Z,73.97
2018-09-29T00:58:56.712Z,74.05
2018-09-29T01:01:25.683Z,74.59
2018-09-29T01:03:54.605Z,74.39
2018-09-29T01:06:23.568Z,75.57
2018-09-29T01:08:52.525Z,75.21
2018-09-29T01:11:21.546Z,75.34
2018-09-29T01:13:51.181Z,75.54
2018-09-29T01:16:20.174Z,75.56
2018-09-29T01:18:49.274Z,75.43
2018-09-29T01:21:18.258Z,76.34
2018-09-29T01:23:47.258Z,75.43
2018-09-29T01:26:16.250Z,75.43
2018-09-29T01:28:45.251Z,75.89
2018-09-29T01:31:18.925Z,74.94
2018-09-29T01:37:02.278Z,74.53
2018-09-29T01:39:31.381Z,75.04
2018-09-29T01:42:00.299Z,75.54
2018-09-29T01:44:29.211Z,74.71
2018-09-29T01:46:58.191Z,74.92
2018-09-29T01:49:27.206Z,75.66
2018-09-29T01:51:56.170Z,76.00
2018-09-29T01:54:25.083Z,75.49
2018-09-29T01:56:54.018Z,75.57
2018-09-29T01:59:22.980Z,76.04
2018-09-29T02:01:51.955Z,75.47
2018-09-29T02:04:20.932Z,75.92
2018-09-29T02:06:49.853Z,76.11
2018-09-29T02:09:18.801Z,75.69
2018-09-29T02:11:47.776Z,74.40
2018-09-29T02:14:16.707Z,74.95
2018-09-29T02:16:45.777Z,74.76
2018-09-29T02:19:14.837Z,74.92
2018-09-29T02:21:43.777Z,75.44
2018-09-29T02:24:12.723Z,75.38
2018-09-29T02:26:41.690Z,75.01
2018-09-29T02:29:10.657Z,74.74
2018-09-29T02:31:39.638Z,75.79
2018-09-29T02:34:08.576Z,76.92
2018-09-29T02:36:38.064Z,76.57
2018-09-29T02:39:09.457Z,76.41
2018-09-29T02:41:38.412Z,75.34
2018-09-29T02:44:07.694Z,74.93
2018-09-29T02:46:36.672Z,75.02
2018-09-29T02:49:05.767Z,74.69
2018-09-29T02:51:34.967Z,75.62
2018-09-29T02:54:03.907Z,76.90
2018-09-29T02:56:32.869Z,76.78
2018-09-29T02:59:01.833Z,76.19
2018-09-29T03:01:30.776Z,75.60
2018-09-29T03:03:59.723Z,74.47
2018-09-29T03:06:28.635Z,74.92
2018-09-29T03:08:57.581Z,75.31
2018-09-29T03:11:26.534Z,75.32
2018-09-29T03:13:55.629Z,76.33
2018-09-29T03:16:24.540Z,77.31
2018-09-29T03:18:53.473Z,77.87
2018-09-29T03:21:23.114Z,77.28
2018-09-29T03:23:52.044Z,76.97
2018-09-29T03:26:20.941Z,76.04
2018-09-29T03:28:49.928Z,75.53
2018-09-29T03:31:18.893Z,75.07
2018-09-29T03:33:47.770Z,77.02
2018-09-29T03:36:17.023Z,77.36
2018-09-29T03:38:45.931Z,76.81
2018-09-29T03:41:14.842Z,76.32
2018-09-29T03:43:43.807Z,75.52
2018-09-29T03:46:12.708Z,76.44
2018-09-29T03:48:41.698Z,75.95
2018-09-29T03:51:10.603Z,76.99
2018-09-29T03:53:39.587Z,77.25
2018-09-29T03:56:08.558Z,78.31
2018-09-29T03:58:37.517Z,78.26
2018-09-29T04:01:06.623Z,76.88
2018-09-29T04:03:35.554Z,76.38
2018-09-29T04:06:04.491Z,76.75
2018-09-29T04:08:33.432Z,76.92
2018-09-29T04:11:02.514Z,77.23
2018-09-29T04:13:31.463Z,78.15
2018-09-29T04:16:00.422Z,77.28
2018-09-29T04:18:29.340Z,76.81
2018-09-29T04:20:58.552Z,76.92
2018-09-29T04:23:27.466Z,76.76
2018-09-29T04:25:56.397Z,77.12
2018-09-29T04:28:25.336Z,77.48
2018-09-29T04:30:54.266Z,77.48
2018-09-29T04:33:23.503Z,77.04
2018-09-29T04:35:52.441Z,78.05
2018-09-29T04:38:21.330Z,77.45
2018-09-29T04:40:50.292Z,77.73
2018-09-29T04:43:19.286Z,77.77
2018-09-29T04:45:48.121Z,76.64
2018-09-29T04:48:17.196Z,77.56
2018-09-29T04:50:46.093Z,77.76
2018-09-29T04:53:14.976Z,77.07
2018-09-29T04:55:44.260Z,77.50
2018-09-29T04:58:13.165Z,77.97
2018-09-29T05:00:42.142Z,77.85
2018-09-29T05:03:11.067Z,78.78
2018-09-29T05:05:40.021Z,77.34
2018-09-29T05:08:08.957Z,78.08
2018-09-29T05:10:37.898Z,78.00
2018-09-29T05:13:06.998Z,77.37
2018-09-29T05:15:35.896Z,77.71
2018-09-29T05:18:04.815Z,77.29
2018-09-29T05:20:33.770Z,77.77
2018-09-29T05:23:02.690Z,78.08
2018-09-29T05:25:31.623Z,77.70
2018-09-29T05:28:00.555Z,76.96
2018-09-29T05:30:29.458Z,77.71
2018-09-29T05:32:58.396Z,77.81
2018-09-29T05:35:27.334Z,77.40
2018-09-29T05:37:56.238Z,78.16
2018-09-29T05:40:25.125Z,77.30
2018-09-29T05:42:54.062Z,77.17
2018-09-29T05:45:23.785Z,77.98
2018-09-29T05:47:52.727Z,78.47
2018-09-29T05:50:21.668Z,78.73
2018-09-29T05:52:50.689Z,78.77
2018-09-29T05:55:19.671Z,78.76
2018-09-29T05:57:48.580Z,78.63
2018-09-29T06:00:17.760Z,79.52
2018-09-29T06:02:46.528Z,79.51
2018-09-29T06:05:15.613Z,79.54
2018-09-29T06:07:44.544Z,79.69
2018-09-29T06:10:13.474Z,79.99
2018-09-29T06:12:42.444Z,79.20
2018-09-29T06:15:11.393Z,80.82
2018-09-29T06:17:40.353Z,81.08
2018-09-29T06:20:09.556Z,81.74
2018-09-29T06:22:38.668Z,81.77
2018-09-29T06:25:07.988Z,81.52
2018-09-29T06:27:36.988Z,81.51
2018-09-29T06:30:05.994Z,82.09
2018-09-29T06:32:35.079Z,81.53
2018-09-29T06:35:04.101Z,81.97
2018-09-29T06:37:33.119Z,80.93
2018-09-29T06:40:02.069Z,81.12
2018-09-29T06:42:31.000Z,81.11
2018-09-29T06:45:00.236Z,82.28
2018-09-29T06:47:29.173Z,81.25
2018-09-29T06:49:58.097Z,81.87
2018-09-29T06:52:27.045Z,82.98
2018-09-29T06:54:56.088Z,82.30
2018-09-29T07:10:57.485Z,81.02
2018-09-29T07:13:26.726Z,81.95
2018-09-29T07:15:55.676Z,82.63
2018-09-29T07:18:24.698Z,82.27
2018-09-29T07:20:53.604Z,82.26
2018-09-29T07:23:22.558Z,82.28
2018-09-29T07:25:51.500Z,82.40
2018-09-29T07:28:20.445Z,82.63
2018-09-29T07:30:49.371Z,81.15
2018-09-29T07:33:18.346Z,82.67
2018-09-29T07:35:47.282Z,82.52
2018-09-29T07:38:16.286Z,83.28
2018-09-29T07:40:45.310Z,82.42
2018-09-29T07:43:14.305Z,82.01
2018-09-29T07:45:43.270Z,83.85
2018-09-29T07:48:12.220Z,81.53
2018-09-29T07:50:41.112Z,83.25
2018-09-29T07:53:10.057Z,82.95
2018-09-29T07:55:39.117Z,84.67
2018-09-29T07:58:08.043Z,82.38
2018-09-29T08:00:37.022Z,81.61
2018-09-29T08:03:06.058Z,82.00
2018-09-29T08:05:34.990Z,83.09
2018-09-29T08:08:03.940Z,83.33
2018-09-29T08:10:32.895Z,82.44
2018-09-29T08:13:01.924Z,81.65
2018-09-29T08:15:30.904Z,81.82
2018-09-29T08:17:59.850Z,82.34
2018-09-29T08:20:28.810Z,81.36
2018-09-29T08:22:57.772Z,81.40
2018-09-29T08:25:26.890Z,82.12
2018-09-29T08:27:55.804Z,81.26
2018-09-29T08:30:24.785Z,80.96
2018-09-29T08:32:53.816Z,80.48
2018-09-29T08:35:22.739Z,79.42
2018-09-29T08:37:51.752Z,76.66
2018-09-29T08:40:20.653Z,76.91
2018-09-29T08:42:49.610Z,76.91
2018-09-29T08:45:18.547Z,75.96
2018-09-29T08:47:47.637Z,76.33
2018-09-29T08:50:16.533Z,76.58
2018-09-29T08:52:45.493Z,75.59
2018-09-29T08:55:14.560Z,75.04
2018-09-29T08:57:43.524Z,75.01
2018-09-29T09:00:12.483Z,74.90
2018-09-29T09:02:41.434Z,74.99
2018-09-29T09:05:10.347Z,74.72
2018-09-29T09:07:39.310Z,74.76
2018-09-29T09:10:08.324Z,74.97
2018-09-29T09:12:37.234Z,74.74
2018-09-29T09:15:06.159Z,74.89
2018-09-29T09:17:35.135Z,74.32
2018-09-29T09:20:04.161Z,74.74
2018-09-29T09:22:33.423Z,74.50
2018-09-29T09:25:02.480Z,74.08
2018-09-29T09:27:31.431Z,73.38
2018-09-29T09:30:00.456Z,73.30
2018-09-29T09:32:30.066Z,73.21
2018-09-29T09:34:59.068Z,73.43
2018-09-29T09:37:27.998Z,73.81
2018-09-29T09:39:56.976Z,72.54
2018-09-29T09:42:26.070Z,72.37
2018-09-29T09:44:55.000Z,72.05
2018-09-29T09:47:23.973Z,72.05
2018-09-29T09:49:52.932Z,72.59
2018-09-29T09:52:22.402Z,72.23
2018-09-29T09:54:51.343Z,70.83
2018-09-29T09:57:20.314Z,72.27
2018-09-29T09:59:50.114Z,71.81
2018-09-29T10:02:24.469Z,71.21
2018-09-29T10:07:27.381Z,71.30
2018-09-29T10:09:57.574Z,71.95
2018-09-29T10:12:33.441Z,71.15
2018-09-29T10:15:02.385Z,70.75
2018-09-29T10:17:31.359Z,71.21
2018-09-29T10:22:37.182Z,70.75
2018-09-29T10:25:06.119Z,70.90
2018-09-29T10:27:35.025Z,70.42
2018-09-29T10:30:03.951Z,70.90
2018-09-29T10:32:32.999Z,71.38
2018-09-29T10:35:01.985Z,70.43
2018-09-29T10:37:30.951Z,71.08
2018-09-29T10:39:59.846Z,70.77
2018-09-29T10:42:28.764Z,69.48
2018-09-29T10:44:57.697Z,68.34
2018-09-29T10:47:26.593Z,67.92
2018-09-29T10:49:55.534Z,67.67
2018-09-29T10:52:24.515Z,68.15
2018-09-29T10:54:53.400Z,68.38
2018-09-29T10:57:22.496Z,67.66
2018-09-29T10:59:51.779Z,67.58
2018-09-29T11:02:20.815Z,68.10
2018-09-29T11:04:49.777Z,67.57
2018-09-29T11:07:18.641Z,66.91
2018-09-29T11:09:47.569Z,66.49
2018-09-29T11:12:16.452Z,66.96
2018-09-29T11:14:45.366Z,66.34
2018-09-29T11:17:14.289Z,65.39
2018-09-29T11:19:43.191Z,65.64
2018-09-29T11:22:12.129Z,65.27
2018-09-29T11:24:41.064Z,64.51
2018-09-29T11:27:10.021Z,65.32
2018-09-29T11:29:38.911Z,64.32
2018-09-29T11:32:07.871Z,64.08
2018-09-29T11:34:36.790Z,64.44
2018-09-29T11:37:05.829Z,65.10
2018-09-29T11:39:34.798Z,64.89
2018-09-29T11:42:03.715Z,64.59
2018-09-29T11:44:32.681Z,64.21
2018-09-29T11:47:01.594Z,64.85
2018-09-29T11:49:30.564Z,64.87
2018-09-29T11:52:00.139Z,63.48
2018-09-29T11:54:29.131Z,64.25
2018-09-29T11:56:58.078Z,64.30
2018-09-29T11:59:27.026Z,63.53
2018-09-29T12:01:55.991Z,63.26
2018-09-29T12:04:25.055Z,63.45
2018-09-29T12:06:53.944Z,63.48
2018-09-29T12:09:22.891Z,63.87
2018-09-29T12:11:51.907Z,63.99
2018-09-29T12:14:20.932Z,63.93
2018-09-29T12:16:49.998Z,64.12
2018-09-29T12:19:18.925Z,63.95
2018-09-29T12:21:47.877Z,64.04
2018-09-29T12:24:16.818Z,64.09
2018-09-29T12:26:45.746Z,64.01
2018-09-29T12:29:14.648Z,64.34
2018-09-29T12:31:43.575Z,63.73
2018-09-29T12:34:12.633Z,63.51
2018-09-29T12:36:41.596Z,63.95
2018-09-29T12:39:11.206Z,63.50
2018-09-29T12:41:40.117Z,64.13
2018-09-29T12:44:08.981Z,63.87
2018-09-29T12:46:37.899Z,64.49
2018-09-29T12:49:06.801Z,63.43
2018-09-29T12:51:35.688Z,62.80
2018-09-29T12:54:04.552Z,63.23
2018-09-29T12:56:33.441Z,61.50
2018-09-29T12:59:02.454Z,62.97
2018-09-29T13:01:31.288Z,62.17
2018-09-29T13:04:00.175Z,62.26
2018-09-29T13:06:29.077Z,62.10
2018-09-29T13:08:57.948Z,60.58
2018-09-29T13:11:26.883Z,61.34
2018-09-29T13:13:55.798Z,60.60
2018-09-29T13:16:24.703Z,59.57
2018-09-29T13:18:53.650Z,59.37
2018-09-29T13:21:22.570Z,59.70
2018-09-29T13:23:51.645Z,59.96
2018-09-29T13:26:20.672Z,60.27
2018-09-29T13:28:49.619Z,60.91
2018-09-29T13:31:18.524Z,59.83
2018-09-29T13:33:47.475Z,59.52
2018-09-29T13:36:17.366Z,59.12
2018-09-29T13:38:47.861Z,59.73
2018-09-29T13:41:16.782Z,60.48
2018-09-29T13:43:46.022Z,60.55
2018-09-29T13:46:14.907Z,60.71
2018-09-29T13:48:43.821Z,60.78
2018-09-29T13:51:12.718Z,60.68
2018-09-29T13:53:41.693Z,60.82
2018-09-29T13:56:10.514Z,61.34
2018-09-29T13:58:39.391Z,61.22
2018-09-29T14:01:08.267Z,61.37
2018-09-29T14:03:37.217Z,61.20
2018-09-29T14:06:06.162Z,61.17
2018-09-29T14:08:35.076Z,61.07
2018-09-29T14:11:04.004Z,60.61
2018-09-29T14:13:32.904Z,60.79
2018-09-29T14:16:01.782Z,60.47
2018-09-29T14:18:30.774Z,60.90
2018-09-29T14:20:59.647Z,61.51
2018-09-29T14:23:28.572Z,61.44
2018-09-29T14:25:57.483Z,60.97
2018-09-29T14:28:26.386Z,61.00
2018-09-29T14:30:55.286Z,61.04
2018-09-29T14:33:24.195Z,61.05
2018-09-29T14:35:53.070Z,60.92
2018-09-29T14:38:22.024Z,60.48
2018-09-29T14:40:50.951Z,60.67
2018-09-29T14:43:19.871Z,60.16
2018-09-29T14:45:48.873Z,59.32
2018-09-29T14:48:17.751Z,59.41
2018-09-29T14:50:46.636Z,59.03
2018-09-29T14:53:15.541Z,59.50
2018-09-29T14:55:44.421Z,58.50
2018-09-29T14:58:13.316Z,58.98
2018-09-29T15:00:42.261Z,59.37
2018-09-29T15:03:11.154Z,59.00
2018-09-29T15:05:40.097Z,59.63
2018-09-29T15:08:09.037Z,60.07
2018-09-29T15:10:37.974Z,61.14
2018-09-29T15:13:06.909Z,59.67
2018-09-29T15:15:35.808Z,60.05
2018-09-29T15:18:04.726Z,60.80
2018-09-29T15:20:33.728Z,59.92
2018-09-29T15:23:02.621Z,59.33
2018-09-29T15:25:31.537Z,59.60
2018-09-29T15:28:00.459Z,59.11
2018-09-29T15:30:29.331Z,59.25
2018-09-29T15:32:58.232Z,59.26
2018-09-29T15:35:27.100Z,59.72
2018-09-29T15:37:56.032Z,59.57
2018-09-29T15:40:24.934Z,59.57
2018-09-29T15:42:53.982Z,59.00
2018-09-29T15:45:22.767Z,59.33
2018-09-29T15:47:51.690Z,60.17
2018-09-29T15:50:20.605Z,59.38
2018-09-29T15:52:49.500Z,59.50
2018-09-29T15:55:18.494Z,59.33
2018-09-29T15:57:47.387Z,59.84
2018-09-29T16:00:16.330Z,59.36
2018-09-29T16:02:45.292Z,59.72
2018-09-29T16:05:14.208Z,60.34
2018-09-29T16:07:43.119Z,59.84
2018-09-29T16:10:12.004Z,60.64
2018-09-29T16:12:40.983Z,60.73
2018-09-29T16:15:10.027Z,60.55
2018-09-29T16:17:38.911Z,60.45
2018-09-29T16:20:07.817Z,60.57
2018-09-29T16:22:36.775Z,60.71
2018-09-29T16:25:05.725Z,62.08
2018-09-29T16:27:34.599Z,61.59
2018-09-29T16:30:03.529Z,63.23
2018-09-29T16:32:32.573Z,62.69
2018-09-29T16:35:01.482Z,62.83
2018-09-29T16:37:30.388Z,62.88
2018-09-29T16:39:59.259Z,63.77
2018-09-29T16:42:28.216Z,63.54
2018-09-29T16:44:57.108Z,63.62
2018-09-29T16:47:26.034Z,63.74
2018-09-29T16:49:55.117Z,64.44
2018-09-29T16:52:24.085Z,64.47
2018-09-29T16:54:53.001Z,64.62
2018-09-29T16:57:22.001Z,64.86
2018-09-29T16:59:50.883Z,65.37
2018-09-29T17:02:19.815Z,65.36
2018-09-29T17:04:48.877Z,66.03
2018-09-29T17:07:17.601Z,66.81
2018-09-29T17:09:46.473Z,66.59
2018-09-29T17:12:15.531Z,66.38
2018-09-29T17:14:44.494Z,66.67
2018-09-29T17:17:13.378Z,66.45
2018-09-29T17:19:42.267Z,67.07
2018-09-29T17:22:11.224Z,66.47
2018-09-29T17:24:40.128Z,67.43
2018-09-29T17:27:09.015Z,67.74
2018-09-29T17:29:37.935Z,67.16
2018-09-29T17:32:06.819Z,67.83
2018-09-29T17:34:35.737Z,67.34
2018-09-29T17:37:04.686Z,68.01
2018-09-29T17:39:33.592Z,68.74
2018-09-29T17:42:02.512Z,67.93
2018-09-29T17:44:31.454Z,68.09
2018-09-29T17:47:00.362Z,67.58
2018-09-29T17:49:29.284Z,68.08
2018-09-29T17:51:58.218Z,67.23
2018-09-29T17:54:27.112Z,68.41
2018-09-29T17:56:56.017Z,68.55
2018-09-29T17:59:24.953Z,68.83
2018-09-29T18:01:53.940Z,68.51
2018-09-29T18:04:22.862Z,67.86
2018-09-29T18:06:51.736Z,68.40
2018-09-29T18:09:20.642Z,69.66
2018-09-29T18:11:49.556Z,69.89
2018-09-29T18:14:18.485Z,69.56
2018-09-29T18:16:47.389Z,70.31
2018-09-29T18:19:16.281Z,69.29
2018-09-29T18:21:45.282Z,70.47
2018-09-29T18:24:14.222Z,71.02
2018-09-29T18:26:43.138Z,70.72
2018-09-29T18:29:12.045Z,70.56
2018-09-29T18:31:40.967Z,70.31
2018-09-29T18:34:10.177Z,70.73
2018-09-29T18:36:39.116Z,70.73
2018-09-29T18:39:09.490Z,71.75
2018-09-29T18:41:38.772Z,71.98
2018-09-29T18:44:07.880Z,71.92
2018-09-29T18:46:36.951Z,71.66
2018-09-29T18:49:05.855Z,72.31
2018-09-29T18:51:34.787Z,73.20
2018-09-29T18:54:03.682Z,73.29
2018-09-29T18:56:32.642Z,72.58
2018-09-29T18:59:01.569Z,72.58
2018-09-29T19:01:30.468Z,71.93
2018-09-29T19:03:59.421Z,72.55
2018-09-29T19:06:28.365Z,73.26
2018-09-29T19:08:57.251Z,73.71
2018-09-29T19:11:26.134Z,72.47
2018-09-29T19:13:55.065Z,71.81
2018-09-29T19:16:24.078Z,74.09
2018-09-29T19:18:52.953Z,73.30
2018-09-29T19:21:21.870Z,72.77
2018-09-29T19:23:50.766Z,71.67
2018-09-29T19:26:19.705Z,74.20
2018-09-29T19:28:48.632Z,73.24
2018-09-29T19:31:17.555Z,71.74
2018-09-29T19:33:46.480Z,73.53
2018-09-29T19:36:15.484Z,72.47
2018-09-29T19:38:44.406Z,72.53
2018-09-29T19:41:13.293Z,72.46
2018-09-29T19:43:42.198Z,72.92
2018-09-29T19:46:11.122Z,73.76
2018-09-29T19:48:40.031Z,73.42
2018-09-29T19:51:09.160Z,73.69
2018-09-29T19:53:38.042Z,72.14
2018-09-29T19:56:06.983Z,71.51
2018-09-29T19:58:35.917Z,73.15
2018-09-29T20:01:04.806Z,74.10
2018-09-29T20:03:33.731Z,73.93
2018-09-29T20:06:02.660Z,73.03
2018-09-29T20:08:31.595Z,73.72
2018-09-29T20:11:00.505Z,73.09
2018-09-29T20:13:29.429Z,74.10
2018-09-29T20:15:58.447Z,72.23
2018-09-29T20:18:27.748Z,73.49
2018-09-29T20:20:56.752Z,72.90
2018-09-29T20:23:25.672Z,73.15
2018-09-29T20:25:54.606Z,72.89
2018-09-29T20:28:23.627Z,72.96
2018-09-29T20:30:52.564Z,73.60
2018-09-29T20:33:21.469Z,73.19
2018-09-29T20:35:50.387Z,74.04
2018-09-29T20:38:19.328Z,73.91
2018-09-29T20:40:48.181Z,73.19
2018-09-29T20:43:17.074Z,73.98
2018-09-29T20:45:45.992Z,73.47
2018-09-29T20:48:14.933Z,73.93
2018-09-29T20:50:43.830Z,75.21
2018-09-29T20:53:12.713Z,75.97
2018-09-29T20:55:41.610Z,75.30
2018-09-29T20:58:10.528Z,75.34
2018-09-29T21:00:39.419Z,73.48
2018-09-29T21:03:08.291Z,72.93
2018-09-29T21:05:37.190Z,72.80
2018-09-29T21:08:06.349Z,73.96
2018-09-29T21:10:35.368Z,75.28
2018-09-29T21:13:04.379Z,74.84
2018-09-29T21:15:34.504Z,75.62
2018-09-29T21:18:03.429Z,75.24
2018-09-29T21:20:32.327Z,74.97
2018-09-29T21:23:01.239Z,74.66
2018-09-29T21:25:30.148Z,75.07
2018-09-29T21:27:59.091Z,75.55
2018-09-29T21:30:28.032Z,74.32
2018-09-29T21:32:57.026Z,73.85
2018-09-29T21:35:25.986Z,74.66
2018-09-29T21:37:54.985Z,74.84
2018-09-29T21:40:24.073Z,74.67
2018-09-29T21:42:53.014Z,75.05
2018-09-29T21:45:21.936Z,75.21
2018-09-29T21:47:50.884Z,74.58
2018-09-29T21:50:19.805Z,74.88
2018-09-29T21:52:48.749Z,75.34
2018-09-29T21:55:17.669Z,74.08
2018-09-29T21:57:46.638Z,73.62
2018-09-29T22:00:19.924Z,73.76
2018-09-29T22:02:48.955Z,74.43
2018-09-29T22:05:17.841Z,74.09
2018-09-29T22:07:46.956Z,74.24
2018-09-29T22:10:15.857Z,75.17
2018-09-29T22:12:44.857Z,75.39
2018-09-29T22:15:14.059Z,75.53
2018-09-29T22:17:43.115Z,75.29
2018-09-29T22:20:12.712Z,75.37
2018-09-29T22:22:41.676Z,74.27
2018-09-29T22:25:10.625Z,74.43
2018-09-29T22:27:42.375Z,75.60
2018-09-29T22:30:13.569Z,75.44
2018-09-29T22:32:43.054Z,76.37
2018-09-29T22:35:11.999Z,75.56
2018-09-29T22:37:40.932Z,75.26
2018-09-29T22:40:09.907Z,73.45
2018-09-29T22:42:38.891Z,74.21
2018-09-29T22:45:07.819Z,73.57
2018-09-29T22:47:36.757Z,74.65
2018-09-29T22:50:05.667Z,74.53
2018-09-29T22:52:34.627Z,74.62
2018-09-29T22:55:03.521Z,74.88
2018-09-29T22:57:32.569Z,74.76
2018-09-29T23:00:01.467Z,75.40
2018-09-29T23:02:30.426Z,74.74
2018-09-29T23:04:59.344Z,75.02
2018-09-29T23:07:28.322Z,75.29
2018-09-29T23:09:57.299Z,76.84
2018-09-29T23:12:26.444Z,76.04
2018-09-29T23:14:55.396Z,75.79
2018-09-29T23:17:24.282Z,75.20
2018-09-29T23:19:53.236Z,75.20
2018-09-29T23:22:22.151Z,75.30
2018-09-29T23:24:51.064Z,76.02
2018-09-29T23:27:19.982Z,76.77
2018-09-29T23:29:48.873Z,76.88
2018-09-29T23:32:17.750Z,77.14
2018-09-29T23:34:46.723Z,76.47
2018-09-29T23:37:15.906Z,75.75
2018-09-29T23:39:44.830Z,74.88
2018-09-29T23:42:13.731Z,75.30
2018-09-29T23:44:42.631Z,75.71
2018-09-29T23:47:11.514Z,75.97
2018-09-29T23:49:40.413Z,76.13
2018-09-29T23:52:09.323Z,75.87
2018-09-29T23:54:38.433Z,76.30
2018-09-29T23:57:07.310Z,75.46
2018-09-29T23:59:36.203Z,75.20
